Portada
METAR-TAF:

METAR-TAF

Aeroports :

La Paz, Mèxic

latitud: 24-04N, longitud: 110-22W, altitud: 21 m

Observació

L'informe es va fer fa 58 minuts, a les 16:47 UTC
Vent 3 kt del Oest/Sud-Oest
Temperatura 27°C
Humitat 28%
Pressió 1013 hPa
Visibilitat: 16.1 km
Escasses núvols a una alçada de 20000 ft

METAR: MMLP 251647Z 24003KT 10SM FEW200 27/07 A2991 RMK 8/008 HZ

Hora: 11:45 (17:45 UTC)

Pronòstic

L'informe es va fer fa 1 hora i 3 minuts, a les 16:42 UTC
Pronòstic vàlid del 25 a les 18 UTC al 26 a les 18 UTC
Vent 12 kt del Oest
Visibilitat: 10 km
Cel clar
A partir de les 26 a les 0400 UTC
Vent 8 kt del Sud/Sud-Oest
Visibilitat: 10 km
Núvols disperses a una alçada de 25000 ft
A partir de les 26 a les 1600 UTC
Vent 10 kt del Oest/Nord-Oest
Visibilitat: 10 km
Cel ennuvolat a una alçada de 25000 ft

TAF: MMLP 251642Z 2518/2618 26012KT P6SM SKC FM260400 20008KT P6SM SCT250 FM261600 30010KT P6SM BKN250

Observacions i pronòstics meteorològics de més de 4000 aeroports (METAR i TAF).

Les estacions disponibles són els punts grocs i vermells al mapa.

Posi el ratolí al punt desitjat per veure el nom de l'estació.

Feu clic per veure les observacions i els pronòstics meteorològics.

Per canviar el mapa: feu clic els botons verds amb una creu de color negre per apropar; al botó verd amb un guió per allunyar la imatge; o en les fletxes verdes per a mapes adjacents.


METAR-TAF: